Terminal Aerodrome Forecast
Issued by NWS

Home | Current Version | Previous Version | Text Only | Print | Product List | Glossary On
Versions: 1 2 3 4 5 6 7 8 9 10 11 12 13 14 15 16 17 18
000
FTUS42 KTAE 281900 AAA
TAFECP
TAF AMD
KECP 281901Z 2819/2918 24013G18KT P6SM VCTS BKN030CB
     FM282200 VRB12G20KT 3SM TSRA BKN030CB
     FM290000 26008KT P6SM BKN030=

USA.gov is the U.S. government's official web portal to all federal, state and local government web resources and services.